Portada
METAR-TAF:

METAR-TAF

Aeroports :

Brunei, Brunei

latitud: 04-56N, longitud: 114-56E, altitud: 22 m

Observació

L'informe es va fer fa 38 minuts, a les 00:30 UTC
Vent 5 kt del Sud/Sud-Oest
Temperatura 29°C
Humitat 79%
Pressió 1009 hPa
Visibilitat 10 km o més
Escasses núvols a una alçada de 1500 ft
Escasses núvols a una alçada de 1600 ft, Cumulonimbus.
Cel ennuvolat a una alçada de 30000 ft

METAR: WBSB 010030Z 20005KT 9999 FEW015 FEW016CB BKN300 29/25 Q1009 NOSIG

Hora: 09:08 (01:08 UTC)

Pronòstic

L'informe es va fer fa 2 hores i 8 minuts, a les 23:00 UTC
Pronòstic vàlid del 01 a les 00 UTC al 02 a les 06 UTC
Vent 3 kt del Sud/Sud-Est
Visibilitat 10 km o més
Escasses núvols a una alçada de 1500 ft
Evolucionant progressivament
l' 01 a les 03 UTC al 01 a les 05 UTC
Vent 10 kt del Nord
Escasses núvols a una alçada de 1700 ft
Escasses núvols a una alçada de 1800 ft, Cumulonimbus.

TAF: WBSB 302300Z 0100/0206 16003KT 9999 FEW015 BECMG 0103/0105 35010KT FEW017 FEW018CB

Observacions i pronòstics meteorològics de més de 4000 aeroports (METAR i TAF).

Les estacions disponibles són els punts grocs i vermells al mapa.

Posi el ratolí al punt desitjat per veure el nom de l'estació.

Feu clic per veure les observacions i els pronòstics meteorològics.

Per canviar el mapa: feu clic els botons verds amb una creu de color negre per apropar; al botó verd amb un guió per allunyar la imatge; o en les fletxes verdes per a mapes adjacents.


METAR-TAF: